createdAt,value
2022-09-12T00:01:31.087Z,100.00
2022-09-12T00:04:02.055Z,100.00
2022-09-12T00:06:35.527Z,100.00
2022-09-12T00:09:10.151Z,100.00
2022-09-12T00:11:44.739Z,100.00
2022-09-12T00:14:18.229Z,100.00
2022-09-12T00:16:46.787Z,100.00
2022-09-12T00:19:15.518Z,100.00
2022-09-12T00:21:43.807Z,100.00
2022-09-12T00:24:12.130Z,100.00
2022-09-12T00:26:40.499Z,100.00
2022-09-12T00:29:10.759Z,100.00
2022-09-12T00:31:39.302Z,100.00
2022-09-12T00:34:07.721Z,100.00
2022-09-12T00:36:36.736Z,100.00
2022-09-12T00:39:06.365Z,100.00
2022-09-12T00:41:39.855Z,100.00
2022-09-12T00:44:10.865Z,100.00
2022-09-12T00:46:45.638Z,100.00
2022-09-12T00:49:45.943Z,100.00
2022-09-12T00:52:18.524Z,100.00
2022-09-12T00:54:55.456Z,100.00
2022-09-12T00:57:30.055Z,100.00
2022-09-12T01:00:23.131Z,100.00
2022-09-12T01:03:04.229Z,100.00
2022-09-12T01:05:37.214Z,100.00
2022-09-12T01:08:06.876Z,100.00
2022-09-12T01:10:38.254Z,100.00
2022-09-12T01:13:09.643Z,100.00
2022-09-12T01:15:39.935Z,100.00
2022-09-12T01:18:44.163Z,100.00
2022-09-12T01:21:52.820Z,100.00
2022-09-12T01:25:16.841Z,100.00
2022-09-12T01:28:23.372Z,100.00
2022-09-12T01:31:22.039Z,100.00
2022-09-12T01:34:02.284Z,100.00
2022-09-12T01:36:39.362Z,100.00
2022-09-12T01:40:00.515Z,100.00
2022-09-12T01:42:58.968Z,100.00
2022-09-12T01:45:46.905Z,100.00
2022-09-12T01:48:33.121Z,100.00
2022-09-12T01:51:17.985Z,100.00
2022-09-12T01:54:12.583Z,100.00
2022-09-12T01:56:44.235Z,100.00
2022-09-12T01:59:29.407Z,100.00
2022-09-12T02:02:16.725Z,100.00
2022-09-12T02:05:10.933Z,100.00
2022-09-12T02:07:53.752Z,100.00
2022-09-12T02:10:32.735Z,100.00
2022-09-12T02:13:32.333Z,100.00
2022-09-12T02:16:10.837Z,100.00
2022-09-12T02:18:44.568Z,100.00
2022-09-12T02:21:13.695Z,100.00
2022-09-12T02:23:49.680Z,100.00
2022-09-12T02:26:24.175Z,100.00
2022-09-12T02:28:52.514Z,100.00
2022-09-12T02:31:57.755Z,100.00
2022-09-12T02:34:49.497Z,100.00
2022-09-12T02:37:58.164Z,100.00
2022-09-12T02:40:26.687Z,100.00
2022-09-12T02:42:55.605Z,100.00
2022-09-12T02:45:24.141Z,100.00
2022-09-12T02:48:12.783Z,100.00
2022-09-12T02:50:42.097Z,100.00
2022-09-12T02:53:11.351Z,100.00
2022-09-12T02:55:41.827Z,100.00
2022-09-12T02:58:22.212Z,100.00
2022-09-12T03:01:07.874Z,100.00
2022-09-12T03:03:47.553Z,100.00
2022-09-12T03:06:33.258Z,100.00
2022-09-12T03:09:25.432Z,100.00
2022-09-12T03:12:13.874Z,100.00
2022-09-12T03:15:07.442Z,100.00
2022-09-12T03:18:12.086Z,100.00
2022-09-12T03:21:02.266Z,100.00
2022-09-12T03:23:59.519Z,100.00
2022-09-12T03:26:43.348Z,100.00
2022-09-12T03:29:13.926Z,100.00
2022-09-12T03:32:08.496Z,100.00
2022-09-12T03:34:36.942Z,100.00
2022-09-12T03:37:06.200Z,100.00
2022-09-12T03:39:34.518Z,100.00
2022-09-12T03:42:02.910Z,100.00
2022-09-12T03:44:31.175Z,100.00
2022-09-12T03:46:59.429Z,100.00
2022-09-12T03:49:27.658Z,100.00
2022-09-12T03:51:55.947Z,100.00
2022-09-12T03:54:24.655Z,100.00
2022-09-12T03:56:52.918Z,100.00
2022-09-12T03:59:21.397Z,100.00
2022-09-12T04:01:49.659Z,100.00
2022-09-12T04:04:18.032Z,100.00
2022-09-12T04:06:46.315Z,100.00
2022-09-12T04:09:14.845Z,100.00
2022-09-12T04:11:43.081Z,100.00
2022-09-12T04:14:11.523Z,100.00
2022-09-12T04:16:41.091Z,100.00
2022-09-12T04:19:11.724Z,100.00
2022-09-12T04:21:40.118Z,100.00
2022-09-12T04:24:08.535Z,100.00
2022-09-12T04:26:37.021Z,100.00
2022-09-12T04:29:05.342Z,100.00
2022-09-12T04:31:33.645Z,100.00
2022-09-12T04:34:02.055Z,100.00
2022-09-12T04:36:31.105Z,100.00
2022-09-12T04:39:01.177Z,100.00
2022-09-12T04:41:32.720Z,100.00
2022-09-12T04:44:08.168Z,100.00
2022-09-12T04:46:41.358Z,100.00
2022-09-12T04:49:09.874Z,100.00
2022-09-12T04:51:40.880Z,100.00
2022-09-12T04:54:15.614Z,100.00
2022-09-12T04:56:47.360Z,100.00
2022-09-12T04:59:18.501Z,100.00
2022-09-12T05:01:48.412Z,100.00
2022-09-12T05:04:17.259Z,100.00
2022-09-12T05:06:47.492Z,100.00
2022-09-12T05:09:16.527Z,100.00
2022-09-12T05:14:34.946Z,100.00
2022-09-12T05:17:06.293Z,100.00
2022-09-12T05:19:34.912Z,100.00
2022-09-12T05:22:05.004Z,100.00
2022-09-12T05:24:35.169Z,100.00
2022-09-12T05:27:04.800Z,100.00
2022-09-12T05:29:34.097Z,100.00
2022-09-12T05:32:03.628Z,100.00
2022-09-12T05:34:31.980Z,100.00
2022-09-12T05:37:00.413Z,100.00
2022-09-12T05:39:28.730Z,100.00
2022-09-12T05:41:57.021Z,100.00
2022-09-12T05:44:25.269Z,100.00
2022-09-12T05:46:53.720Z,100.00
2022-09-12T05:49:22.100Z,100.00
2022-09-12T05:51:51.691Z,100.00
2022-09-12T05:54:21.225Z,100.00
2022-09-12T05:56:49.541Z,100.00
2022-09-12T05:59:22.055Z,100.00
2022-09-12T06:01:50.303Z,100.00
2022-09-12T06:04:18.921Z,100.00
2022-09-12T06:06:47.284Z,100.00
2022-09-12T06:09:16.961Z,100.00
2022-09-12T06:11:46.536Z,100.00
2022-09-12T06:14:18.132Z,100.00
2022-09-12T06:16:47.369Z,100.00
2022-09-12T06:19:21.838Z,100.00
2022-09-12T06:21:52.711Z,100.00
2022-09-12T06:24:21.741Z,100.00
2022-09-12T06:26:52.730Z,100.00
2022-09-12T06:29:21.970Z,100.00
2022-09-12T06:31:50.239Z,100.00
2022-09-12T06:34:19.572Z,100.00
2022-09-12T06:36:49.474Z,100.00
2022-09-12T06:39:21.125Z,100.00
2022-09-12T06:41:51.603Z,100.00
2022-09-12T06:44:22.754Z,100.00
2022-09-12T06:46:51.478Z,100.00
2022-09-12T06:49:19.765Z,100.00
2022-09-12T06:51:48.310Z,100.00
2022-09-12T06:54:20.125Z,100.00
2022-09-12T06:56:48.722Z,100.00
2022-09-12T06:59:17.105Z,100.00
2022-09-12T07:01:45.564Z,100.00
2022-09-12T07:04:13.850Z,100.00
2022-09-12T07:06:44.089Z,100.00
2022-09-12T07:09:17.226Z,100.00
2022-09-12T07:11:46.194Z,100.00
2022-09-12T07:14:15.684Z,100.00
2022-09-12T07:16:44.281Z,100.00
2022-09-12T07:19:12.867Z,100.00
2022-09-12T07:21:41.621Z,100.00
2022-09-12T07:24:11.020Z,100.00
2022-09-12T07:26:42.131Z,100.00
2022-09-12T07:29:35.772Z,100.00
2022-09-12T07:32:06.278Z,100.00
2022-09-12T07:34:36.115Z,99.77
2022-09-12T07:37:05.147Z,99.60
2022-09-12T07:39:33.564Z,98.91
2022-09-12T07:42:01.992Z,98.63
2022-09-12T07:44:31.687Z,98.13
2022-09-12T07:47:01.060Z,98.14
2022-09-12T07:49:30.533Z,97.86
2022-09-12T07:51:58.874Z,97.92
2022-09-12T07:54:27.751Z,97.59
2022-09-12T07:56:56.029Z,96.83
2022-09-12T07:59:41.801Z,97.24
2022-09-12T08:02:17.395Z,96.38
2022-09-12T08:04:48.330Z,95.98
2022-09-12T08:07:18.374Z,96.10
2022-09-12T08:09:47.577Z,95.76
2022-09-12T08:12:17.760Z,95.53
2022-09-12T08:14:46.618Z,95.71
2022-09-12T08:17:15.560Z,96.15
2022-09-12T08:19:44.914Z,96.03
2022-09-12T08:22:13.662Z,95.71
2022-09-12T08:27:16.768Z,96.63
2022-09-12T08:29:45.379Z,96.07
2022-09-12T08:32:13.671Z,94.21
2022-09-12T08:34:41.945Z,92.82
2022-09-12T08:37:10.246Z,90.97
2022-09-12T08:39:38.582Z,90.60
2022-09-12T08:46:10.877Z,91.02
2022-09-12T08:48:40.704Z,91.13
2022-09-12T08:51:14.185Z,90.47
2022-09-12T08:53:46.304Z,89.41
2022-09-12T08:56:15.055Z,89.71
2022-09-12T08:58:51.157Z,89.37
2022-09-12T09:01:30.208Z,89.26
2022-09-12T09:04:20.543Z,89.56
2022-09-12T09:07:30.400Z,88.91
2022-09-12T09:10:35.157Z,87.79
2022-09-12T09:16:37.728Z,88.86
2022-09-12T09:19:18.127Z,88.91
2022-09-12T09:22:40.047Z,87.57
2022-09-12T09:25:42.018Z,86.49
2022-09-12T09:28:31.121Z,86.22
2022-09-12T09:30:59.701Z,86.78
2022-09-12T09:33:36.184Z,87.06
2022-09-12T09:39:52.040Z,86.48
2022-09-12T09:42:49.099Z,86.80
2022-09-12T09:45:22.170Z,86.75
2022-09-12T09:48:22.251Z,86.54
2022-09-12T09:50:50.929Z,86.58
2022-09-12T09:53:32.643Z,86.48
2022-09-12T09:56:09.883Z,86.58
2022-09-12T10:05:08.978Z,84.59
2022-09-12T10:07:39.633Z,84.36
2022-09-12T10:10:19.549Z,84.10
2022-09-12T10:12:49.876Z,83.91
2022-09-12T10:18:48.100Z,85.64
2022-09-12T10:21:41.274Z,84.86
2022-09-12T10:24:29.313Z,84.41
2022-09-12T10:27:21.288Z,83.32
2022-09-12T10:30:00.315Z,83.82
2022-09-12T10:32:40.761Z,82.88
2022-09-12T10:35:18.422Z,81.92
2022-09-12T10:38:01.384Z,82.69
2022-09-12T10:40:33.434Z,83.39
2022-09-12T10:46:31.552Z,81.87
2022-09-12T10:49:31.279Z,81.17
2022-09-12T10:59:01.541Z,80.87
2022-09-12T11:01:51.249Z,80.82
2022-09-12T11:07:49.819Z,77.76
2022-09-12T11:10:42.624Z,78.32
2022-09-12T11:14:02.977Z,78.84
2022-09-12T11:20:18.535Z,76.25
2022-09-12T11:32:53.578Z,74.54
2022-09-12T11:41:40.002Z,73.76
2022-09-12T11:46:51.892Z,73.94
2022-09-12T11:52:30.510Z,73.67
2022-09-12T11:58:55.878Z,72.09
2022-09-12T12:01:37.437Z,70.36
2022-09-12T12:04:08.816Z,70.28
2022-09-12T12:06:53.991Z,71.25
2022-09-12T12:09:24.025Z,70.98
2022-09-12T12:11:57.697Z,70.87
2022-09-12T12:14:56.926Z,70.49
2022-09-12T12:17:27.343Z,69.63
2022-09-12T12:20:08.733Z,68.84
2022-09-12T12:22:37.490Z,68.75
2022-09-12T12:28:52.151Z,68.34
2022-09-12T12:34:45.030Z,68.01
2022-09-12T12:37:33.956Z,67.51
2022-09-12T12:43:05.300Z,67.76
2022-09-12T12:45:33.597Z,67.90
2022-09-12T12:48:15.191Z,68.19
2022-09-12T12:50:43.582Z,68.63
2022-09-12T12:53:28.017Z,68.81
2022-09-12T12:55:57.611Z,69.06
2022-09-12T12:58:40.636Z,69.16
2022-09-12T13:01:22.908Z,69.29
2022-09-12T13:04:05.387Z,68.50
2022-09-12T13:06:44.672Z,68.19
2022-09-12T13:15:36.738Z,68.58
2022-09-12T13:18:14.766Z,68.64
2022-09-12T13:21:11.722Z,69.19
2022-09-12T13:23:40.849Z,68.68
2022-09-12T13:26:25.184Z,68.85
2022-09-12T13:29:18.332Z,68.95
2022-09-12T13:31:53.495Z,69.17
2022-09-12T13:34:29.174Z,69.75
2022-09-12T13:37:22.740Z,69.65
2022-09-12T13:40:16.837Z,69.87
2022-09-12T13:42:53.079Z,70.09
2022-09-12T13:45:24.583Z,70.16
2022-09-12T13:53:27.255Z,71.03
2022-09-12T13:58:37.021Z,71.20
2022-09-12T14:01:16.424Z,71.02
2022-09-12T14:04:11.931Z,71.10
2022-09-12T14:06:52.611Z,71.32
2022-09-12T14:12:31.357Z,71.76
2022-09-12T14:14:59.829Z,72.02
2022-09-12T14:17:36.139Z,72.26
2022-09-12T14:20:16.233Z,72.43
2022-09-12T14:22:50.476Z,72.49
2022-09-12T14:25:25.518Z,72.57
2022-09-12T14:27:57.456Z,72.66
2022-09-12T14:30:33.395Z,72.65
2022-09-12T14:33:10.922Z,72.80
2022-09-12T14:36:20.797Z,71.81
2022-09-12T14:39:22.320Z,71.52
2022-09-12T14:42:00.194Z,71.52
2022-09-12T14:44:31.116Z,71.16
2022-09-12T14:47:14.529Z,70.77
2022-09-12T14:49:45.748Z,71.08
2022-09-12T14:52:34.787Z,71.07
2022-09-12T14:55:16.018Z,71.09
2022-09-12T14:57:47.921Z,70.56
2022-09-12T15:00:21.707Z,70.30
2022-09-12T15:02:52.805Z,70.40
2022-09-12T15:05:27.128Z,70.50
2022-09-12T15:07:59.528Z,70.38
2022-09-12T15:10:31.682Z,70.37
2022-09-12T15:13:05.800Z,70.49
2022-09-12T15:15:34.956Z,70.89
2022-09-12T15:18:06.785Z,71.42
2022-09-12T15:20:41.399Z,72.03
2022-09-12T15:23:57.686Z,72.28
2022-09-12T15:26:30.574Z,72.48
2022-09-12T15:29:00.612Z,72.73
2022-09-12T15:31:33.843Z,72.96
2022-09-12T15:34:06.226Z,73.05
2022-09-12T15:36:36.766Z,73.38
2022-09-12T15:39:07.121Z,73.51
2022-09-12T15:41:38.522Z,73.51
2022-09-12T15:44:12.279Z,73.72
2022-09-12T15:46:42.193Z,73.98
2022-09-12T15:49:13.469Z,74.03
2022-09-12T15:51:42.887Z,74.06
2022-09-12T15:54:15.803Z,74.16
2022-09-12T15:56:45.418Z,74.16
2022-09-12T15:59:16.332Z,74.09
2022-09-12T16:01:47.116Z,74.47
2022-09-12T16:04:25.515Z,74.50
2022-09-12T16:06:56.609Z,74.63
2022-09-12T16:09:27.479Z,74.79
2022-09-12T16:11:57.889Z,74.97
2022-09-12T16:14:29.161Z,75.14
2022-09-12T16:16:57.587Z,75.40
2022-09-12T16:19:27.480Z,75.54
2022-09-12T16:21:55.903Z,75.67
2022-09-12T16:24:24.137Z,75.51
2022-09-12T16:26:52.364Z,75.98
2022-09-12T16:29:20.716Z,76.14
2022-09-12T16:31:49.030Z,76.08
2022-09-12T16:36:47.573Z,76.14
2022-09-12T16:39:16.264Z,76.29
2022-09-12T16:41:44.628Z,76.46
2022-09-12T16:44:12.910Z,76.51
2022-09-12T16:46:45.324Z,76.51
2022-09-12T16:49:13.824Z,76.83
2022-09-12T16:51:44.978Z,77.26
2022-09-12T16:54:17.336Z,77.68
2022-09-12T16:56:46.657Z,77.82
2022-09-12T16:59:16.727Z,78.13
2022-09-12T17:01:45.344Z,78.20
2022-09-12T17:04:13.756Z,78.28
2022-09-12T17:06:42.590Z,78.59
2022-09-12T17:09:11.453Z,79.04
2022-09-12T17:11:39.711Z,79.20
2022-09-12T17:14:08.990Z,79.55
2022-09-12T17:16:49.283Z,79.55
2022-09-12T17:22:13.980Z,79.72
2022-09-12T17:24:42.681Z,79.88
2022-09-12T17:27:11.612Z,80.14
2022-09-12T17:29:41.483Z,80.35
2022-09-12T17:32:10.573Z,80.65
2022-09-12T17:34:41.109Z,81.05
2022-09-12T17:37:09.714Z,81.38
2022-09-12T17:39:38.274Z,81.44
2022-09-12T17:42:08.000Z,81.67
2022-09-12T17:44:36.382Z,81.76
2022-09-12T17:47:04.817Z,82.17
2022-09-12T17:49:33.985Z,82.65
2022-09-12T17:52:02.604Z,82.88
2022-09-12T17:54:31.069Z,83.13
2022-09-12T17:56:59.806Z,83.30
2022-09-12T17:59:28.552Z,83.55
2022-09-12T18:02:16.233Z,83.61
2022-09-12T18:04:46.549Z,83.78
2022-09-12T18:07:18.358Z,83.96
2022-09-12T18:09:47.834Z,84.32
2022-09-12T18:12:17.321Z,84.99
2022-09-12T18:14:45.671Z,85.36
2022-09-12T18:17:14.217Z,85.67
2022-09-12T18:19:43.927Z,85.93
2022-09-12T18:22:12.251Z,86.26
2022-09-12T18:24:40.625Z,86.33
2022-09-12T18:27:08.944Z,86.54
2022-09-12T18:29:37.183Z,86.54
2022-09-12T18:32:05.775Z,86.61
2022-09-12T18:34:35.083Z,86.70
2022-09-12T18:37:05.329Z,86.97
2022-09-12T18:39:33.783Z,86.91
2022-09-12T18:42:02.006Z,87.27
2022-09-12T18:44:30.322Z,87.19
2022-09-12T18:46:59.199Z,87.28
2022-09-12T18:49:27.500Z,87.55
2022-09-12T18:51:55.899Z,88.09
2022-09-12T18:54:24.213Z,88.42
2022-09-12T18:56:52.460Z,88.85
2022-09-12T18:59:20.760Z,89.24
2022-09-12T19:01:50.247Z,89.64
2022-09-12T19:04:18.591Z,89.93
2022-09-12T19:06:48.669Z,90.00
2022-09-12T19:09:20.602Z,89.63
2022-09-12T19:11:49.931Z,89.49
2022-09-12T19:14:22.814Z,89.48
2022-09-12T19:16:52.227Z,89.50
2022-09-12T19:19:21.650Z,89.43
2022-09-12T19:21:50.028Z,89.52
2022-09-12T19:24:18.692Z,89.57
2022-09-12T19:26:48.974Z,89.77
2022-09-12T19:29:17.745Z,90.32
2022-09-12T19:31:46.359Z,90.66
2022-09-12T19:34:15.626Z,90.57
2022-09-12T19:36:45.997Z,90.77
2022-09-12T19:39:17.792Z,90.73
2022-09-12T19:41:46.385Z,90.62
2022-09-12T19:44:14.781Z,90.72
2022-09-12T19:46:43.479Z,90.55
2022-09-12T19:49:13.033Z,90.53
2022-09-12T19:51:41.561Z,90.58
2022-09-12T19:54:10.259Z,90.66
2022-09-12T19:56:38.598Z,90.76
2022-09-12T19:59:07.027Z,90.71
2022-09-12T20:01:37.147Z,90.75
2022-09-12T20:04:06.837Z,90.99
2022-09-12T20:06:35.439Z,91.17
2022-09-12T20:09:04.565Z,91.24
2022-09-12T20:11:33.018Z,91.50
2022-09-12T20:14:01.550Z,91.68
2022-09-12T20:16:30.324Z,91.81
2022-09-12T20:19:06.962Z,92.06
2022-09-12T20:21:36.845Z,92.26
2022-09-12T20:24:14.101Z,92.37
2022-09-12T20:26:43.301Z,92.39
2022-09-12T20:29:11.849Z,92.73
2022-09-12T20:31:42.326Z,93.16
2022-09-12T20:34:16.894Z,93.36
2022-09-12T20:36:45.933Z,93.55
2022-09-12T20:39:20.981Z,93.94
2022-09-12T20:41:49.898Z,93.88
2022-09-12T20:44:18.360Z,93.87
2022-09-12T20:46:46.840Z,93.63
2022-09-12T20:49:15.202Z,93.37
2022-09-12T20:51:43.727Z,93.30
2022-09-12T20:54:12.045Z,93.37
2022-09-12T20:56:40.323Z,93.47
2022-09-12T20:59:12.690Z,93.65
2022-09-12T21:01:41.062Z,93.93
2022-09-12T21:04:13.075Z,94.23
2022-09-12T21:06:43.403Z,94.14
2022-09-12T21:09:11.740Z,94.37
2022-09-12T21:11:40.003Z,94.61
2022-09-12T21:14:08.366Z,94.62
2022-09-12T21:16:38.615Z,94.46
2022-09-12T21:19:06.990Z,94.47
2022-09-12T21:21:35.293Z,94.78
2022-09-12T21:24:03.892Z,95.40
2022-09-12T21:26:32.800Z,96.08
2022-09-12T21:29:01.454Z,96.23
2022-09-12T21:31:30.551Z,96.37
2022-09-12T21:33:58.807Z,96.84
2022-09-12T21:36:27.430Z,97.22
2022-09-12T21:38:59.067Z,97.46
2022-09-12T21:41:28.782Z,97.57
2022-09-12T21:43:57.055Z,97.75
2022-09-12T21:46:25.548Z,97.91
2022-09-12T21:48:53.961Z,97.99
2022-09-12T21:51:22.290Z,97.80
2022-09-12T21:53:50.582Z,98.20
2022-09-12T21:56:18.841Z,98.59
2022-09-12T21:58:47.491Z,99.11
2022-09-12T22:01:15.809Z,99.51
2022-09-12T22:03:44.815Z,99.74
2022-09-12T22:06:14.334Z,99.71
2022-09-12T22:08:43.064Z,99.73
2022-09-12T22:11:11.361Z,99.94
2022-09-12T22:13:43.859Z,100.00
2022-09-12T22:16:12.495Z,100.00
2022-09-12T22:18:40.959Z,100.00
2022-09-12T22:21:14.429Z,99.89
2022-09-12T22:24:01.192Z,99.54
2022-09-12T22:26:32.194Z,99.29
2022-09-12T22:29:01.930Z,99.42
2022-09-12T22:31:31.152Z,99.04
2022-09-12T22:33:59.684Z,98.64
2022-09-12T22:36:31.108Z,98.49
2022-09-12T22:39:00.356Z,98.56
2022-09-12T22:41:28.708Z,98.49
2022-09-12T22:43:57.392Z,98.27
2022-09-12T22:46:26.134Z,97.88
2022-09-12T22:48:55.780Z,97.42
2022-09-12T22:51:24.531Z,97.41
2022-09-12T22:53:52.951Z,97.51
2022-09-12T22:56:21.253Z,97.54
2022-09-12T22:58:49.645Z,97.49
2022-09-12T23:01:18.512Z,97.58
2022-09-12T23:03:46.978Z,97.80
2022-09-12T23:06:15.848Z,98.00
2022-09-12T23:08:44.103Z,98.14
2022-09-12T23:11:15.886Z,98.09
2022-09-12T23:13:47.496Z,98.05
2022-09-12T23:16:20.188Z,98.11
2022-09-12T23:18:49.416Z,98.27
2022-09-12T23:21:21.275Z,98.21
2022-09-12T23:23:50.726Z,98.23
2022-09-12T23:26:22.935Z,98.51
2022-09-12T23:29:00.087Z,98.66
2022-09-12T23:31:31.815Z,98.81
2022-09-12T23:34:03.615Z,98.99
2022-09-12T23:36:32.859Z,98.63
2022-09-12T23:39:01.196Z,98.56
2022-09-12T23:41:29.696Z,98.20
2022-09-12T23:43:58.199Z,98.09
2022-09-12T23:46:26.878Z,98.48
2022-09-12T23:49:01.017Z,98.57
2022-09-12T23:51:29.673Z,98.57
2022-09-12T23:53:58.128Z,98.57
2022-09-12T23:56:27.052Z,98.64
2022-09-12T23:58:55.337Z,98.41
